sensor_id;sensor_type;location;lat;lon;timestamp;temperature;humidity
17307;DHT22;8771;48.048;7.682;2022-12-07T00:00:00;6.90;82.80
17307;DHT22;8771;48.048;7.682;2022-12-07T00:05:02;7.00;82.80
17307;DHT22;8771;48.048;7.682;2022-12-07T00:10:06;7.00;82.80
17307;DHT22;8771;48.048;7.682;2022-12-07T00:15:12;7.00;82.90
17307;DHT22;8771;48.048;7.682;2022-12-07T00:20:14;7.00;82.80
17307;DHT22;8771;48.048;7.682;2022-12-07T00:25:16;7.00;82.70
17307;DHT22;8771;48.048;7.682;2022-12-07T00:30:20;7.00;82.70
17307;DHT22;8771;48.048;7.682;2022-12-07T00:35:22;7.00;82.70
17307;DHT22;8771;48.048;7.682;2022-12-07T00:40:24;7.00;82.70
17307;DHT22;8771;48.048;7.682;2022-12-07T00:45:27;7.00;82.70
17307;DHT22;8771;48.048;7.682;2022-12-07T00:50:29;7.00;82.70
17307;DHT22;8771;48.048;7.682;2022-12-07T00:55:32;7.00;82.70
17307;DHT22;8771;48.048;7.682;2022-12-07T01:00:38;7.00;82.80
17307;DHT22;8771;48.048;7.682;2022-12-07T01:05:50;7.00;82.70
17307;DHT22;8771;48.048;7.682;2022-12-07T01:10:59;7.00;82.70
17307;DHT22;8771;48.048;7.682;2022-12-07T01:16:05;7.00;82.60
17307;DHT22;8771;48.048;7.682;2022-12-07T01:21:10;7.00;82.70
17307;DHT22;8771;48.048;7.682;2022-12-07T01:26:15;6.90;82.90
17307;DHT22;8771;48.048;7.682;2022-12-07T01:31:20;6.90;82.90
17307;DHT22;8771;48.048;7.682;2022-12-07T01:36:23;6.90;82.90
17307;DHT22;8771;48.048;7.682;2022-12-07T01:41:28;6.90;82.90
17307;DHT22;8771;48.048;7.682;2022-12-07T01:46:31;6.80;83.00
17307;DHT22;8771;48.048;7.682;2022-12-07T01:51:33;6.80;83.10
17307;DHT22;8771;48.048;7.682;2022-12-07T01:56:37;6.80;83.10
17307;DHT22;8771;48.048;7.682;2022-12-07T02:01:43;6.70;83.00
17307;DHT22;8771;48.048;7.682;2022-12-07T02:06:45;6.70;83.10
17307;DHT22;8771;48.048;7.682;2022-12-07T02:11:47;6.70;83.10
17307;DHT22;8771;48.048;7.682;2022-12-07T02:17:01;6.80;83.10
17307;DHT22;8771;48.048;7.682;2022-12-07T02:22:27;6.80;83.00
17307;DHT22;8771;48.048;7.682;2022-12-07T02:27:45;6.80;83.10
17307;DHT22;8771;48.048;7.682;2022-12-07T02:32:54;6.70;83.00
17307;DHT22;8771;48.048;7.682;2022-12-07T02:38:05;6.80;83.10
17307;DHT22;8771;48.048;7.682;2022-12-07T02:43:11;6.70;83.10
17307;DHT22;8771;48.048;7.682;2022-12-07T02:48:16;6.80;83.10
17307;DHT22;8771;48.048;7.682;2022-12-07T02:53:30;6.80;83.10
17307;DHT22;8771;48.048;7.682;2022-12-07T02:58:41;6.70;83.10
17307;DHT22;8771;48.048;7.682;2022-12-07T03:03:51;6.80;83.10
17307;DHT22;8771;48.048;7.682;2022-12-07T03:09:03;6.80;83.10
17307;DHT22;8771;48.048;7.682;2022-12-07T03:14:13;6.80;83.00
17307;DHT22;8771;48.048;7.682;2022-12-07T03:19:20;6.80;83.10
17307;DHT22;8771;48.048;7.682;2022-12-07T03:24:27;6.80;83.10
17307;DHT22;8771;48.048;7.682;2022-12-07T03:29:33;6.70;83.10
17307;DHT22;8771;48.048;7.682;2022-12-07T03:34:43;6.70;83.10
17307;DHT22;8771;48.048;7.682;2022-12-07T03:39:57;6.70;83.10
17307;DHT22;8771;48.048;7.682;2022-12-07T03:45:01;6.70;83.20
17307;DHT22;8771;48.048;7.682;2022-12-07T03:50:10;6.70;83.10
17307;DHT22;8771;48.048;7.682;2022-12-07T03:55:17;6.70;84.00
17307;DHT22;8771;48.048;7.682;2022-12-07T04:00:21;6.60;83.20
17307;DHT22;8771;48.048;7.682;2022-12-07T04:05:25;6.60;83.30
17307;DHT22;8771;48.048;7.682;2022-12-07T04:10:27;6.60;83.40
17307;DHT22;8771;48.048;7.682;2022-12-07T04:15:29;6.50;83.40
17307;DHT22;8771;48.048;7.682;2022-12-07T04:20:32;6.50;83.40
17307;DHT22;8771;48.048;7.682;2022-12-07T04:25:34;6.50;83.40
17307;DHT22;8771;48.048;7.682;2022-12-07T04:30:36;6.50;83.40
17307;DHT22;8771;48.048;7.682;2022-12-07T04:35:39;6.50;83.30
17307;DHT22;8771;48.048;7.682;2022-12-07T04:40:43;6.40;83.40
17307;DHT22;8771;48.048;7.682;2022-12-07T04:45:46;6.40;83.50
17307;DHT22;8771;48.048;7.682;2022-12-07T04:50:50;6.40;83.40
17307;DHT22;8771;48.048;7.682;2022-12-07T04:55:52;6.30;83.40
17307;DHT22;8771;48.048;7.682;2022-12-07T05:00:54;6.30;83.40
17307;DHT22;8771;48.048;7.682;2022-12-07T05:05:58;6.30;83.40
17307;DHT22;8771;48.048;7.682;2022-12-07T05:11:00;6.20;83.40
17307;DHT22;8771;48.048;7.682;2022-12-07T05:16:03;6.20;83.50
17307;DHT22;8771;48.048;7.682;2022-12-07T05:21:06;6.20;83.40
17307;DHT22;8771;48.048;7.682;2022-12-07T05:26:08;6.20;83.50
17307;DHT22;8771;48.048;7.682;2022-12-07T05:31:10;6.10;83.40
17307;DHT22;8771;48.048;7.682;2022-12-07T05:36:13;6.10;83.50
17307;DHT22;8771;48.048;7.682;2022-12-07T05:41:17;6.00;83.50
17307;DHT22;8771;48.048;7.682;2022-12-07T05:46:39;5.90;83.60
17307;DHT22;8771;48.048;7.682;2022-12-07T05:51:42;5.90;83.80
17307;DHT22;8771;48.048;7.682;2022-12-07T05:56:44;5.80;83.80
17307;DHT22;8771;48.048;7.682;2022-12-07T06:01:46;5.70;83.80
17307;DHT22;8771;48.048;7.682;2022-12-07T06:11:53;5.60;83.30
17307;DHT22;8771;48.048;7.682;2022-12-07T06:17:13;5.50;84.10
17307;DHT22;8771;48.048;7.682;2022-12-07T06:22:16;5.30;84.20
17307;DHT22;8771;48.048;7.682;2022-12-07T06:27:18;5.20;84.30
17307;DHT22;8771;48.048;7.682;2022-12-07T06:32:20;5.20;84.40
17307;DHT22;8771;48.048;7.682;2022-12-07T06:37:23;5.10;84.20
17307;DHT22;8771;48.048;7.682;2022-12-07T06:42:25;5.10;84.30
17307;DHT22;8771;48.048;7.682;2022-12-07T06:47:27;5.00;84.30
17307;DHT22;8771;48.048;7.682;2022-12-07T06:52:31;4.80;84.20
17307;DHT22;8771;48.048;7.682;2022-12-07T06:57:33;4.80;84.30
17307;DHT22;8771;48.048;7.682;2022-12-07T07:02:35;4.70;84.30
17307;DHT22;8771;48.048;7.682;2022-12-07T07:07:39;4.60;84.40
17307;DHT22;8771;48.048;7.682;2022-12-07T07:12:40;4.50;84.50
17307;DHT22;8771;48.048;7.682;2022-12-07T07:17:42;4.40;84.50
17307;DHT22;8771;48.048;7.682;2022-12-07T07:22:46;4.30;84.50
17307;DHT22;8771;48.048;7.682;2022-12-07T07:27:48;4.30;84.50
17307;DHT22;8771;48.048;7.682;2022-12-07T07:32:50;4.20;84.50
17307;DHT22;8771;48.048;7.682;2022-12-07T07:37:53;4.10;84.40
17307;DHT22;8771;48.048;7.682;2022-12-07T07:42:56;4.10;84.40
17307;DHT22;8771;48.048;7.682;2022-12-07T07:47:58;4.00;84.40
17307;DHT22;8771;48.048;7.682;2022-12-07T07:53:01;3.90;84.40
17307;DHT22;8771;48.048;7.682;2022-12-07T07:58:03;3.90;84.50
17307;DHT22;8771;48.048;7.682;2022-12-07T08:03:05;3.90;84.40
17307;DHT22;8771;48.048;7.682;2022-12-07T08:08:09;3.90;84.20
17307;DHT22;8771;48.048;7.682;2022-12-07T08:13:11;4.00;84.20
17307;DHT22;8771;48.048;7.682;2022-12-07T08:18:14;4.00;84.10
17307;DHT22;8771;48.048;7.682;2022-12-07T08:23:18;4.10;84.10
17307;DHT22;8771;48.048;7.682;2022-12-07T08:28:20;4.20;84.00
17307;DHT22;8771;48.048;7.682;2022-12-07T08:33:22;4.20;83.90
17307;DHT22;8771;48.048;7.682;2022-12-07T08:38:27;4.30;83.80
17307;DHT22;8771;48.048;7.682;2022-12-07T08:43:29;4.40;83.70
17307;DHT22;8771;48.048;7.682;2022-12-07T08:48:31;4.40;83.70
17307;DHT22;8771;48.048;7.682;2022-12-07T08:53:36;4.50;83.80
17307;DHT22;8771;48.048;7.682;2022-12-07T09:04:36;4.80;83.50
17307;DHT22;8771;48.048;7.682;2022-12-07T09:09:39;4.90;83.20
17307;DHT22;8771;48.048;7.682;2022-12-07T09:14:42;5.10;83.20
17307;DHT22;8771;48.048;7.682;2022-12-07T09:19:44;5.20;83.00
17307;DHT22;8771;48.048;7.682;2022-12-07T09:24:47;5.30;83.10
17307;DHT22;8771;48.048;7.682;2022-12-07T09:29:50;5.40;83.20
17307;DHT22;8771;48.048;7.682;2022-12-07T09:34:52;5.40;83.00
17307;DHT22;8771;48.048;7.682;2022-12-07T09:39:55;5.50;83.00
17307;DHT22;8771;48.048;7.682;2022-12-07T09:44:58;5.60;83.10
17307;DHT22;8771;48.048;7.682;2022-12-07T09:50:04;5.80;82.90
17307;DHT22;8771;48.048;7.682;2022-12-07T09:55:13;6.00;82.80
17307;DHT22;8771;48.048;7.682;2022-12-07T10:00:17;6.30;82.60
17307;DHT22;8771;48.048;7.682;2022-12-07T10:05:23;6.60;82.30
17307;DHT22;8771;48.048;7.682;2022-12-07T10:10:30;6.90;82.00
17307;DHT22;8771;48.048;7.682;2022-12-07T10:15:45;7.10;81.80
17307;DHT22;8771;48.048;7.682;2022-12-07T10:20:48;7.30;81.60
17307;DHT22;8771;48.048;7.682;2022-12-07T10:25:51;7.50;81.70
17307;DHT22;8771;48.048;7.682;2022-12-07T10:30:59;7.60;81.60
17307;DHT22;8771;48.048;7.682;2022-12-07T10:36:19;7.80;81.60
17307;DHT22;8771;48.048;7.682;2022-12-07T10:41:22;8.00;81.60
17307;DHT22;8771;48.048;7.682;2022-12-07T10:46:54;8.10;82.20
17307;DHT22;8771;48.048;7.682;2022-12-07T10:52:03;8.40;81.10
17307;DHT22;8771;48.048;7.682;2022-12-07T10:57:29;8.70;80.80
17307;DHT22;8771;48.048;7.682;2022-12-07T11:08:30;9.00;80.70
17307;DHT22;8771;48.048;7.682;2022-12-07T11:13:43;9.10;80.70
17307;DHT22;8771;48.048;7.682;2022-12-07T11:18:55;9.10;80.70
17307;DHT22;8771;48.048;7.682;2022-12-07T11:24:04;9.10;80.90
17307;DHT22;8771;48.048;7.682;2022-12-07T11:29:35;9.20;81.00
17307;DHT22;8771;48.048;7.682;2022-12-07T11:34:51;9.10;81.20
17307;DHT22;8771;48.048;7.682;2022-12-07T11:40:00;9.00;81.30
17307;DHT22;8771;48.048;7.682;2022-12-07T11:45:14;8.90;81.40
17307;DHT22;8771;48.048;7.682;2022-12-07T11:50:27;8.90;81.60
17307;DHT22;8771;48.048;7.682;2022-12-07T11:55:39;8.90;81.60
17307;DHT22;8771;48.048;7.682;2022-12-07T12:00:43;9.00;81.40
17307;DHT22;8771;48.048;7.682;2022-12-07T12:05:45;9.10;81.40
17307;DHT22;8771;48.048;7.682;2022-12-07T12:10:55;9.10;81.20
17307;DHT22;8771;48.048;7.682;2022-12-07T12:16:09;9.20;81.20
17307;DHT22;8771;48.048;7.682;2022-12-07T12:21:17;9.30;81.00
17307;DHT22;8771;48.048;7.682;2022-12-07T12:26:23;9.40;83.20
17307;DHT22;8771;48.048;7.682;2022-12-07T12:31:36;9.50;82.80
17307;DHT22;8771;48.048;7.682;2022-12-07T12:36:45;9.70;79.70
17307;DHT22;8771;48.048;7.682;2022-12-07T12:41:54;9.80;80.30
17307;DHT22;8771;48.048;7.682;2022-12-07T12:53:05;9.70;80.30
17307;DHT22;8771;48.048;7.682;2022-12-07T12:58:34;9.80;80.20
17307;DHT22;8771;48.048;7.682;2022-12-07T13:03:36;9.70;80.30
17307;DHT22;8771;48.048;7.682;2022-12-07T13:08:41;9.80;80.40
17307;DHT22;8771;48.048;7.682;2022-12-07T13:13:43;9.80;80.30
17307;DHT22;8771;48.048;7.682;2022-12-07T13:18:45;9.90;80.30
17307;DHT22;8771;48.048;7.682;2022-12-07T13:23:55;9.90;80.30
17307;DHT22;8771;48.048;7.682;2022-12-07T13:29:05;10.00;80.30
17307;DHT22;8771;48.048;7.682;2022-12-07T13:34:30;9.90;80.30
17307;DHT22;8771;48.048;7.682;2022-12-07T13:39:35;9.90;80.50
17307;DHT22;8771;48.048;7.682;2022-12-07T13:44:46;9.90;80.50
17307;DHT22;8771;48.048;7.682;2022-12-07T13:49:50;9.90;80.50
17307;DHT22;8771;48.048;7.682;2022-12-07T13:54:58;9.80;80.40
17307;DHT22;8771;48.048;7.682;2022-12-07T14:00:02;9.80;80.60
17307;DHT22;8771;48.048;7.682;2022-12-07T14:05:10;9.80;80.70
17307;DHT22;8771;48.048;7.682;2022-12-07T14:10:30;9.70;80.70
17307;DHT22;8771;48.048;7.682;2022-12-07T14:15:33;9.70;80.70
17307;DHT22;8771;48.048;7.682;2022-12-07T14:20:38;9.70;80.70
17307;DHT22;8771;48.048;7.682;2022-12-07T14:25:50;9.60;80.60
17307;DHT22;8771;48.048;7.682;2022-12-07T14:30:52;9.60;80.70
17307;DHT22;8771;48.048;7.682;2022-12-07T14:35:55;9.40;80.90
17307;DHT22;8771;48.048;7.682;2022-12-07T14:40:59;9.30;81.00
17307;DHT22;8771;48.048;7.682;2022-12-07T14:46:15;9.30;81.10
17307;DHT22;8771;48.048;7.682;2022-12-07T14:51:17;9.20;81.10
17307;DHT22;8771;48.048;7.682;2022-12-07T14:56:21;8.90;81.20
17307;DHT22;8771;48.048;7.682;2022-12-07T15:01:23;8.60;81.60
17307;DHT22;8771;48.048;7.682;2022-12-07T15:06:25;8.40;81.80
17307;DHT22;8771;48.048;7.682;2022-12-07T15:11:28;8.40;81.90
17307;DHT22;8771;48.048;7.682;2022-12-07T15:16:30;8.30;81.90
17307;DHT22;8771;48.048;7.682;2022-12-07T15:21:32;8.20;81.90
17307;DHT22;8771;48.048;7.682;2022-12-07T15:26:36;8.10;81.90
17307;DHT22;8771;48.048;7.682;2022-12-07T15:31:38;8.00;81.90
17307;DHT22;8771;48.048;7.682;2022-12-07T15:36:40;7.90;81.80
17307;DHT22;8771;48.048;7.682;2022-12-07T15:41:43;7.70;81.90
17307;DHT22;8771;48.048;7.682;2022-12-07T15:46:45;7.60;82.00
17307;DHT22;8771;48.048;7.682;2022-12-07T15:51:47;7.40;82.10
17307;DHT22;8771;48.048;7.682;2022-12-07T15:56:50;7.30;82.20
17307;DHT22;8771;48.048;7.682;2022-12-07T16:01:54;7.20;82.20
17307;DHT22;8771;48.048;7.682;2022-12-07T16:06:56;7.00;82.20
17307;DHT22;8771;48.048;7.682;2022-12-07T16:11:59;6.90;82.20
17307;DHT22;8771;48.048;7.682;2022-12-07T16:17:01;6.70;82.30
17307;DHT22;8771;48.048;7.682;2022-12-07T16:22:05;6.60;82.50
17307;DHT22;8771;48.048;7.682;2022-12-07T16:27:08;6.50;82.60
17307;DHT22;8771;48.048;7.682;2022-12-07T16:32:10;6.30;82.60
17307;DHT22;8771;48.048;7.682;2022-12-07T16:37:12;6.20;82.70
17307;DHT22;8771;48.048;7.682;2022-12-07T16:42:15;6.00;82.70
17307;DHT22;8771;48.048;7.682;2022-12-07T16:47:17;5.90;82.70
17307;DHT22;8771;48.048;7.682;2022-12-07T16:52:20;5.80;82.80
17307;DHT22;8771;48.048;7.682;2022-12-07T16:57:23;5.70;82.80
17307;DHT22;8771;48.048;7.682;2022-12-07T17:02:25;5.60;82.80
17307;DHT22;8771;48.048;7.682;2022-12-07T17:07:28;5.60;82.70
17307;DHT22;8771;48.048;7.682;2022-12-07T17:12:31;5.60;82.60
17307;DHT22;8771;48.048;7.682;2022-12-07T17:17:33;5.50;82.60
17307;DHT22;8771;48.048;7.682;2022-12-07T17:22:35;5.30;82.50
17307;DHT22;8771;48.048;7.682;2022-12-07T17:27:39;5.20;82.60
17307;DHT22;8771;48.048;7.682;2022-12-07T17:32:41;5.20;82.70
17307;DHT22;8771;48.048;7.682;2022-12-07T17:37:43;5.10;82.70
17307;DHT22;8771;48.048;7.682;2022-12-07T17:42:46;5.10;82.70
17307;DHT22;8771;48.048;7.682;2022-12-07T17:47:51;5.10;82.60
17307;DHT22;8771;48.048;7.682;2022-12-07T17:52:53;5.10;82.50
17307;DHT22;8771;48.048;7.682;2022-12-07T17:58:15;5.20;82.50
17307;DHT22;8771;48.048;7.682;2022-12-07T18:03:17;5.10;82.20
17307;DHT22;8771;48.048;7.682;2022-12-07T18:08:18;5.20;82.20
17307;DHT22;8771;48.048;7.682;2022-12-07T18:13:22;5.20;82.20
17307;DHT22;8771;48.048;7.682;2022-12-07T18:18:36;5.20;82.20
17307;DHT22;8771;48.048;7.682;2022-12-07T18:23:38;5.20;82.10
17307;DHT22;8771;48.048;7.682;2022-12-07T18:28:42;5.20;82.10
17307;DHT22;8771;48.048;7.682;2022-12-07T18:33:45;5.20;82.00
17307;DHT22;8771;48.048;7.682;2022-12-07T18:38:47;5.30;82.10
17307;DHT22;8771;48.048;7.682;2022-12-07T18:43:51;5.30;82.00
17307;DHT22;8771;48.048;7.682;2022-12-07T18:48:53;5.40;82.00
17307;DHT22;8771;48.048;7.682;2022-12-07T18:53:57;5.40;81.90
17307;DHT22;8771;48.048;7.682;2022-12-07T18:59:02;5.50;81.90
17307;DHT22;8771;48.048;7.682;2022-12-07T19:04:22;5.50;81.90
17307;DHT22;8771;48.048;7.682;2022-12-07T19:09:24;5.60;81.80
17307;DHT22;8771;48.048;7.682;2022-12-07T19:14:30;5.60;81.80
17307;DHT22;8771;48.048;7.682;2022-12-07T19:19:34;5.60;81.80
17307;DHT22;8771;48.048;7.682;2022-12-07T19:24:37;5.60;81.80
17307;DHT22;8771;48.048;7.682;2022-12-07T19:29:40;5.60;81.70
17307;DHT22;8771;48.048;7.682;2022-12-07T19:34:44;5.60;81.70
17307;DHT22;8771;48.048;7.682;2022-12-07T19:39:46;5.60;81.70
17307;DHT22;8771;48.048;7.682;2022-12-07T19:44:52;5.60;81.60
17307;DHT22;8771;48.048;7.682;2022-12-07T19:49:54;5.60;81.60
17307;DHT22;8771;48.048;7.682;2022-12-07T19:54:56;5.60;81.60
17307;DHT22;8771;48.048;7.682;2022-12-07T19:59:59;5.60;81.70
17307;DHT22;8771;48.048;7.682;2022-12-07T20:05:01;5.60;81.60
17307;DHT22;8771;48.048;7.682;2022-12-07T20:10:05;5.60;81.70
17307;DHT22;8771;48.048;7.682;2022-12-07T20:15:09;5.60;81.70
17307;DHT22;8771;48.048;7.682;2022-12-07T20:20:11;5.50;81.60
17307;DHT22;8771;48.048;7.682;2022-12-07T20:25:13;5.50;81.90
17307;DHT22;8771;48.048;7.682;2022-12-07T20:30:18;5.40;82.00
17307;DHT22;8771;48.048;7.682;2022-12-07T20:35:22;5.40;81.90
17307;DHT22;8771;48.048;7.682;2022-12-07T20:40:24;5.40;81.90
17307;DHT22;8771;48.048;7.682;2022-12-07T20:45:27;5.40;81.90
17307;DHT22;8771;48.048;7.682;2022-12-07T20:50:29;5.40;82.00
17307;DHT22;8771;48.048;7.682;2022-12-07T20:55:31;5.40;81.90
17307;DHT22;8771;48.048;7.682;2022-12-07T21:00:35;5.40;81.90
17307;DHT22;8771;48.048;7.682;2022-12-07T21:05:37;5.40;82.60
17307;DHT22;8771;48.048;7.682;2022-12-07T21:10:39;5.40;81.80
17307;DHT22;8771;48.048;7.682;2022-12-07T21:15:42;5.40;81.80
17307;DHT22;8771;48.048;7.682;2022-12-07T21:20:44;5.40;81.90
17307;DHT22;8771;48.048;7.682;2022-12-07T21:25:46;5.20;81.90
17307;DHT22;8771;48.048;7.682;2022-12-07T21:30:50;5.20;82.10
17307;DHT22;8771;48.048;7.682;2022-12-07T21:35:56;5.20;82.10
17307;DHT22;8771;48.048;7.682;2022-12-07T21:40:58;5.20;82.10
17307;DHT22;8771;48.048;7.682;2022-12-07T21:46:02;5.30;82.10
17307;DHT22;8771;48.048;7.682;2022-12-07T21:51:09;5.30;81.90
17307;DHT22;8771;48.048;7.682;2022-12-07T21:56:14;5.30;81.90
17307;DHT22;8771;48.048;7.682;2022-12-07T22:01:20;5.40;81.90
17307;DHT22;8771;48.048;7.682;2022-12-07T22:06:23;5.40;81.80
17307;DHT22;8771;48.048;7.682;2022-12-07T22:11:26;5.40;82.50
17307;DHT22;8771;48.048;7.682;2022-12-07T22:16:30;5.40;81.80
17307;DHT22;8771;48.048;7.682;2022-12-07T22:21:32;5.40;81.80
17307;DHT22;8771;48.048;7.682;2022-12-07T22:26:34;5.30;81.80
17307;DHT22;8771;48.048;7.682;2022-12-07T22:31:37;5.30;81.90
17307;DHT22;8771;48.048;7.682;2022-12-07T22:36:40;5.30;81.90
17307;DHT22;8771;48.048;7.682;2022-12-07T22:41:42;5.20;81.90
17307;DHT22;8771;48.048;7.682;2022-12-07T22:46:46;5.10;82.00
17307;DHT22;8771;48.048;7.682;2022-12-07T22:51:48;5.00;82.00
17307;DHT22;8771;48.048;7.682;2022-12-07T22:56:49;5.00;82.20
17307;DHT22;8771;48.048;7.682;2022-12-07T23:01:53;4.80;82.20
17307;DHT22;8771;48.048;7.682;2022-12-07T23:06:57;4.80;82.30
17307;DHT22;8771;48.048;7.682;2022-12-07T23:11:59;4.70;82.30
17307;DHT22;8771;48.048;7.682;2022-12-07T23:17:19;4.50;82.40
17307;DHT22;8771;48.048;7.682;2022-12-07T23:22:21;4.50;82.50
17307;DHT22;8771;48.048;7.682;2022-12-07T23:27:23;4.40;82.50
17307;DHT22;8771;48.048;7.682;2022-12-07T23:32:26;4.30;82.60
17307;DHT22;8771;48.048;7.682;2022-12-07T23:37:28;4.20;82.60
17307;DHT22;8771;48.048;7.682;2022-12-07T23:42:31;4.10;82.60
17307;DHT22;8771;48.048;7.682;2022-12-07T23:47:35;4.00;82.60
17307;DHT22;8771;48.048;7.682;2022-12-07T23:52:37;3.90;83.30
17307;DHT22;8771;48.048;7.682;2022-12-07T23:57:38;3.80;82.70
